sensor_id;sensor_type;location;lat;lon;timestamp;temperature;humidity
75489;HTU21D;64069;46.396;48.102;2023-07-16T00:02:15;18.78;62.73
75489;HTU21D;64069;46.396;48.102;2023-07-16T00:04:47;18.72;62.89
75489;HTU21D;64069;46.396;48.102;2023-07-16T00:07:19;18.69;63.09
75489;HTU21D;64069;46.396;48.102;2023-07-16T00:09:45;18.64;63.33
75489;HTU21D;64069;46.396;48.102;2023-07-16T00:12:18;18.59;63.52
75489;HTU21D;64069;46.396;48.102;2023-07-16T00:14:50;18.57;63.75
75489;HTU21D;64069;46.396;48.102;2023-07-16T00:17:16;18.56;63.90
75489;HTU21D;64069;46.396;48.102;2023-07-16T00:19:48;18.53;64.12
75489;HTU21D;64069;46.396;48.102;2023-07-16T00:22:20;18.51;64.37
75489;HTU21D;64069;46.396;48.102;2023-07-16T00:24:46;18.50;64.68
75489;HTU21D;64069;46.396;48.102;2023-07-16T00:27:18;18.51;64.79
75489;HTU21D;64069;46.396;48.102;2023-07-16T00:29:50;18.49;64.82
75489;HTU21D;64069;46.396;48.102;2023-07-16T00:32:22;18.49;64.77
75489;HTU21D;64069;46.396;48.102;2023-07-16T00:34:48;18.51;64.75
75489;HTU21D;64069;46.396;48.102;2023-07-16T00:37:20;18.49;64.75
75489;HTU21D;64069;46.396;48.102;2023-07-16T00:39:52;18.47;64.73
75489;HTU21D;64069;46.396;48.102;2023-07-16T00:42:18;18.46;64.73
75489;HTU21D;64069;46.396;48.102;2023-07-16T00:44:50;18.47;64.75
75489;HTU21D;64069;46.396;48.102;2023-07-16T00:47:23;18.47;64.73
75489;HTU21D;64069;46.396;48.102;2023-07-16T00:49:49;18.47;64.79
75489;HTU21D;64069;46.396;48.102;2023-07-16T00:52:22;18.47;64.81
75489;HTU21D;64069;46.396;48.102;2023-07-16T00:54:55;18.46;64.80
75489;HTU21D;64069;46.396;48.102;2023-07-16T00:57:22;18.48;64.79
75489;HTU21D;64069;46.396;48.102;2023-07-16T00:59:55;18.48;64.83
75489;HTU21D;64069;46.396;48.102;2023-07-16T01:02:27;18.48;64.76
75489;HTU21D;64069;46.396;48.102;2023-07-16T01:04:53;18.48;64.74
75489;HTU21D;64069;46.396;48.102;2023-07-16T01:07:28;18.50;64.70
75489;HTU21D;64069;46.396;48.102;2023-07-16T01:09:56;18.52;64.56
75489;HTU21D;64069;46.396;48.102;2023-07-16T01:12:29;18.54;64.48
75489;HTU21D;64069;46.396;48.102;2023-07-16T01:15:01;18.54;64.45
75489;HTU21D;64069;46.396;48.102;2023-07-16T01:17:27;18.57;64.42
75489;HTU21D;64069;46.396;48.102;2023-07-16T01:20:00;18.58;64.33
75489;HTU21D;64069;46.396;48.102;2023-07-16T01:23:11;18.63;64.23
75489;HTU21D;64069;46.396;48.102;2023-07-16T01:31:56;18.73;63.52
75489;HTU21D;64069;46.396;48.102;2023-07-16T01:34:24;18.78;63.46
75489;HTU21D;64069;46.396;48.102;2023-07-16T01:36:57;18.81;63.30
75489;HTU21D;64069;46.396;48.102;2023-07-16T01:39:31;18.85;63.16
75489;HTU21D;64069;46.396;48.102;2023-07-16T01:41:58;18.92;62.98
75489;HTU21D;64069;46.396;48.102;2023-07-16T01:44:31;19.11;62.57
75489;HTU21D;64069;46.396;48.102;2023-07-16T01:47:12;19.31;62.03
75489;HTU21D;64069;46.396;48.102;2023-07-16T01:49:45;19.45;61.57
75489;HTU21D;64069;46.396;48.102;2023-07-16T01:52:13;19.54;61.31
75489;HTU21D;64069;46.396;48.102;2023-07-16T01:54:46;19.54;61.30
75489;HTU21D;64069;46.396;48.102;2023-07-16T01:57:20;19.56;61.41
75489;HTU21D;64069;46.396;48.102;2023-07-16T01:59:46;19.60;61.32
75489;HTU21D;64069;46.396;48.102;2023-07-16T02:02:19;19.72;61.07
75489;HTU21D;64069;46.396;48.102;2023-07-16T02:04:58;19.86;60.82
75489;HTU21D;64069;46.396;48.102;2023-07-16T02:07:37;20.00;60.49
75489;HTU21D;64069;46.396;48.102;2023-07-16T02:10:03;20.14;60.23
75489;HTU21D;64069;46.396;48.102;2023-07-16T02:12:36;20.29;59.90
75489;HTU21D;64069;46.396;48.102;2023-07-16T02:15:08;20.48;59.48
75489;HTU21D;64069;46.396;48.102;2023-07-16T02:17:36;20.65;59.14
75489;HTU21D;64069;46.396;48.102;2023-07-16T02:20:09;20.95;58.50
75489;HTU21D;64069;46.396;48.102;2023-07-16T02:22:42;21.34;57.63
75489;HTU21D;64069;46.396;48.102;2023-07-16T02:25:08;21.69;56.77
75489;HTU21D;64069;46.396;48.102;2023-07-16T02:27:40;22.02;55.98
75489;HTU21D;64069;46.396;48.102;2023-07-16T02:30:14;22.34;55.29
75489;HTU21D;64069;46.396;48.102;2023-07-16T02:32:42;22.62;54.66
75489;HTU21D;64069;46.396;48.102;2023-07-16T02:35:15;22.79;53.96
75489;HTU21D;64069;46.396;48.102;2023-07-16T02:37:47;22.92;53.63
75489;HTU21D;64069;46.396;48.102;2023-07-16T02:40:13;23.14;53.16
75489;HTU21D;64069;46.396;48.102;2023-07-16T02:42:46;23.49;52.30
75489;HTU21D;64069;46.396;48.102;2023-07-16T02:45:12;23.77;51.72
75489;HTU21D;64069;46.396;48.102;2023-07-16T02:47:44;24.00;51.01
75489;HTU21D;64069;46.396;48.102;2023-07-16T02:50:16;24.17;50.62
75489;HTU21D;64069;46.396;48.102;2023-07-16T02:52:42;24.32;50.06
75489;HTU21D;64069;46.396;48.102;2023-07-16T02:55:14;24.46;49.66
75489;HTU21D;64069;46.396;48.102;2023-07-16T02:57:46;24.66;49.03
75489;HTU21D;64069;46.396;48.102;2023-07-16T03:00:12;24.80;48.59
75489;HTU21D;64069;46.396;48.102;2023-07-16T03:02:45;24.97;48.10
75489;HTU21D;64069;46.396;48.102;2023-07-16T03:05:24;25.09;47.63
75489;HTU21D;64069;46.396;48.102;2023-07-16T03:07:57;25.25;47.44
75489;HTU21D;64069;46.396;48.102;2023-07-16T03:10:24;25.39;47.03
75489;HTU21D;64069;46.396;48.102;2023-07-16T03:12:58;25.58;46.70
75489;HTU21D;64069;46.396;48.102;2023-07-16T03:15:30;25.87;46.23
75489;HTU21D;64069;46.396;48.102;2023-07-16T03:17:56;26.13;45.61
75489;HTU21D;64069;46.396;48.102;2023-07-16T03:20:28;26.33;45.29
75489;HTU21D;64069;46.396;48.102;2023-07-16T03:23:01;26.55;44.96
75489;HTU21D;64069;46.396;48.102;2023-07-16T03:25:33;26.68;44.18
75489;HTU21D;64069;46.396;48.102;2023-07-16T03:27:59;26.67;44.15
75489;HTU21D;64069;46.396;48.102;2023-07-16T03:30:32;26.84;43.83
75489;HTU21D;64069;46.396;48.102;2023-07-16T03:33:05;26.97;43.32
75489;HTU21D;64069;46.396;48.102;2023-07-16T03:35:31;26.84;43.07
75489;HTU21D;64069;46.396;48.102;2023-07-16T03:38:03;26.73;43.06
75489;HTU21D;64069;46.396;48.102;2023-07-16T03:40:35;26.75;42.81
75489;HTU21D;64069;46.396;48.102;2023-07-16T03:43:01;26.70;42.78
75489;HTU21D;64069;46.396;48.102;2023-07-16T03:45:34;26.70;42.53
75489;HTU21D;64069;46.396;48.102;2023-07-16T03:48:06;26.78;42.15
75489;HTU21D;64069;46.396;48.102;2023-07-16T03:50:33;26.84;41.82
75489;HTU21D;64069;46.396;48.102;2023-07-16T03:53:05;26.85;42.00
75489;HTU21D;64069;46.396;48.102;2023-07-16T03:55:37;27.07;41.87
75489;HTU21D;64069;46.396;48.102;2023-07-16T03:58:03;27.28;41.24
75489;HTU21D;64069;46.396;48.102;2023-07-16T04:00:35;27.22;41.39
75489;HTU21D;64069;46.396;48.102;2023-07-16T04:03:07;27.10;41.49
75489;HTU21D;64069;46.396;48.102;2023-07-16T04:05:33;27.06;41.49
75489;HTU21D;64069;46.396;48.102;2023-07-16T04:08:12;27.17;41.17
75489;HTU21D;64069;46.396;48.102;2023-07-16T04:10:45;27.26;40.88
75489;HTU21D;64069;46.396;48.102;2023-07-16T04:13:11;27.29;40.74
75489;HTU21D;64069;46.396;48.102;2023-07-16T04:15:43;27.38;40.84
75489;HTU21D;64069;46.396;48.102;2023-07-16T04:18:15;27.51;40.64
75489;HTU21D;64069;46.396;48.102;2023-07-16T04:20:41;27.55;40.76
75489;HTU21D;64069;46.396;48.102;2023-07-16T04:23:13;27.66;40.60
75489;HTU21D;64069;46.396;48.102;2023-07-16T04:25:45;27.72;40.31
75489;HTU21D;64069;46.396;48.102;2023-07-16T04:28:11;27.74;40.20
75489;HTU21D;64069;46.396;48.102;2023-07-16T04:30:44;27.81;40.20
75489;HTU21D;64069;46.396;48.102;2023-07-16T04:33:16;27.97;40.06
75489;HTU21D;64069;46.396;48.102;2023-07-16T04:35:42;28.08;39.96
75489;HTU21D;64069;46.396;48.102;2023-07-16T04:38:14;28.20;39.69
75489;HTU21D;64069;46.396;48.102;2023-07-16T04:40:42;28.32;39.33
75489;HTU21D;64069;46.396;48.102;2023-07-16T04:43:15;28.26;39.07
75489;HTU21D;64069;46.396;48.102;2023-07-16T04:45:47;28.19;39.37
75489;HTU21D;64069;46.396;48.102;2023-07-16T04:48:13;28.42;38.94
75489;HTU21D;64069;46.396;48.102;2023-07-16T04:50:45;28.37;38.86
75489;HTU21D;64069;46.396;48.102;2023-07-16T04:53:11;28.31;39.07
75489;HTU21D;64069;46.396;48.102;2023-07-16T04:55:43;28.50;38.75
75489;HTU21D;64069;46.396;48.102;2023-07-16T04:58:15;28.53;38.47
75489;HTU21D;64069;46.396;48.102;2023-07-16T05:00:48;28.39;38.70
75489;HTU21D;64069;46.396;48.102;2023-07-16T05:03:15;28.39;39.05
75489;HTU21D;64069;46.396;48.102;2023-07-16T05:05:54;28.54;38.96
75489;HTU21D;64069;46.396;48.102;2023-07-16T05:08:26;28.46;39.04
75489;HTU21D;64069;46.396;48.102;2023-07-16T05:10:52;28.40;39.07
75489;HTU21D;64069;46.396;48.102;2023-07-16T05:13:24;28.33;39.34
75489;HTU21D;64069;46.396;48.102;2023-07-16T05:15:56;28.40;39.36
75489;HTU21D;64069;46.396;48.102;2023-07-16T05:18:22;28.41;39.12
75489;HTU21D;64069;46.396;48.102;2023-07-16T05:20:54;28.40;39.10
75489;HTU21D;64069;46.396;48.102;2023-07-16T05:23:26;28.35;39.12
75489;HTU21D;64069;46.396;48.102;2023-07-16T05:25:52;28.44;38.78
75489;HTU21D;64069;46.396;48.102;2023-07-16T05:28:24;28.41;38.39
75489;HTU21D;64069;46.396;48.102;2023-07-16T05:31:02;28.40;38.27
75489;HTU21D;64069;46.396;48.102;2023-07-16T05:33:35;28.32;38.30
75489;HTU21D;64069;46.396;48.102;2023-07-16T05:36:01;28.43;38.28
75489;HTU21D;64069;46.396;48.102;2023-07-16T05:38:34;28.48;38.08
75489;HTU21D;64069;46.396;48.102;2023-07-16T05:41:06;28.39;38.00
75489;HTU21D;64069;46.396;48.102;2023-07-16T05:43:32;28.29;38.04
75489;HTU21D;64069;46.396;48.102;2023-07-16T05:46:05;28.26;37.86
75489;HTU21D;64069;46.396;48.102;2023-07-16T05:48:32;28.20;37.79
75489;HTU21D;64069;46.396;48.102;2023-07-16T05:51:04;28.33;37.88
75489;HTU21D;64069;46.396;48.102;2023-07-16T05:53:36;28.50;37.27
75489;HTU21D;64069;46.396;48.102;2023-07-16T05:56:02;28.46;37.39
75489;HTU21D;64069;46.396;48.102;2023-07-16T05:58:35;28.61;37.10
75489;HTU21D;64069;46.396;48.102;2023-07-16T06:01:08;28.79;36.93
75489;HTU21D;64069;46.396;48.102;2023-07-16T06:03:34;28.98;36.52
75489;HTU21D;64069;46.396;48.102;2023-07-16T06:06:08;28.92;36.27
75489;HTU21D;64069;46.396;48.102;2023-07-16T06:08:47;28.84;36.17
75489;HTU21D;64069;46.396;48.102;2023-07-16T06:11:20;28.79;36.13
75489;HTU21D;64069;46.396;48.102;2023-07-16T06:13:53;28.84;36.19
75489;HTU21D;64069;46.396;48.102;2023-07-16T06:16:26;28.89;35.95
75489;HTU21D;64069;46.396;48.102;2023-07-16T06:18:52;28.86;35.44
75489;HTU21D;64069;46.396;48.102;2023-07-16T06:21:24;28.76;35.41
75489;HTU21D;64069;46.396;48.102;2023-07-16T06:23:57;28.85;35.50
75489;HTU21D;64069;46.396;48.102;2023-07-16T06:26:29;29.01;35.48
75489;HTU21D;64069;46.396;48.102;2023-07-16T06:28:55;29.38;34.81
75489;HTU21D;64069;46.396;48.102;2023-07-16T06:31:27;29.47;34.25
75489;HTU21D;64069;46.396;48.102;2023-07-16T06:33:59;29.42;34.51
75489;HTU21D;64069;46.396;48.102;2023-07-16T06:36:25;29.47;34.18
75489;HTU21D;64069;46.396;48.102;2023-07-16T06:38:57;29.52;33.63
75489;HTU21D;64069;46.396;48.102;2023-07-16T06:41:32;29.43;33.77
75489;HTU21D;64069;46.396;48.102;2023-07-16T06:43:58;29.46;33.84
75489;HTU21D;64069;46.396;48.102;2023-07-16T06:46:30;29.48;33.61
75489;HTU21D;64069;46.396;48.102;2023-07-16T06:48:56;29.68;33.57
75489;HTU21D;64069;46.396;48.102;2023-07-16T06:51:28;29.93;33.18
75489;HTU21D;64069;46.396;48.102;2023-07-16T06:54:03;30.10;32.77
75489;HTU21D;64069;46.396;48.102;2023-07-16T06:56:29;30.05;32.51
75489;HTU21D;64069;46.396;48.102;2023-07-16T06:59:01;29.91;32.64
75489;HTU21D;64069;46.396;48.102;2023-07-16T07:01:33;29.85;32.50
75489;HTU21D;64069;46.396;48.102;2023-07-16T07:03:59;29.78;32.17
75489;HTU21D;64069;46.396;48.102;2023-07-16T07:06:38;29.70;32.54
75489;HTU21D;64069;46.396;48.102;2023-07-16T07:09:10;29.59;31.80
75489;HTU21D;64069;46.396;48.102;2023-07-16T07:11:36;29.56;31.90
75489;HTU21D;64069;46.396;48.102;2023-07-16T07:14:08;29.58;31.89
75489;HTU21D;64069;46.396;48.102;2023-07-16T07:16:40;29.75;31.90
75489;HTU21D;64069;46.396;48.102;2023-07-16T07:19:06;29.94;31.51
75489;HTU21D;64069;46.396;48.102;2023-07-16T07:21:38;30.03;30.88
75489;HTU21D;64069;46.396;48.102;2023-07-16T07:24:05;30.04;30.85
75489;HTU21D;64069;46.396;48.102;2023-07-16T07:26:37;30.19;30.48
75489;HTU21D;64069;46.396;48.102;2023-07-16T07:29:10;30.30;30.58
75489;HTU21D;64069;46.396;48.102;2023-07-16T07:31:36;30.44;30.73
75489;HTU21D;64069;46.396;48.102;2023-07-16T07:34:08;30.53;30.62
75489;HTU21D;64069;46.396;48.102;2023-07-16T07:36:34;30.47;30.42
75489;HTU21D;64069;46.396;48.102;2023-07-16T07:39:07;30.22;30.80
75489;HTU21D;64069;46.396;48.102;2023-07-16T07:41:33;30.18;31.12
75489;HTU21D;64069;46.396;48.102;2023-07-16T07:44:05;30.13;30.59
75489;HTU21D;64069;46.396;48.102;2023-07-16T07:46:37;30.17;30.67
75489;HTU21D;64069;46.396;48.102;2023-07-16T07:49:09;30.36;30.58
75489;HTU21D;64069;46.396;48.102;2023-07-16T07:51:41;30.44;30.13
75489;HTU21D;64069;46.396;48.102;2023-07-16T07:54:07;30.45;30.00
75489;HTU21D;64069;46.396;48.102;2023-07-16T07:56:39;30.07;30.16
75489;HTU21D;64069;46.396;48.102;2023-07-16T07:59:05;29.97;30.30
75489;HTU21D;64069;46.396;48.102;2023-07-16T08:01:37;30.09;29.77
75489;HTU21D;64069;46.396;48.102;2023-07-16T08:04:09;30.21;29.70
75489;HTU21D;64069;46.396;48.102;2023-07-16T08:06:35;30.25;29.57
75489;HTU21D;64069;46.396;48.102;2023-07-16T08:09:07;30.28;29.66
75489;HTU21D;64069;46.396;48.102;2023-07-16T08:11:33;30.36;29.80
75489;HTU21D;64069;46.396;48.102;2023-07-16T08:14:05;30.36;29.77
75489;HTU21D;64069;46.396;48.102;2023-07-16T08:16:37;30.39;29.87
75489;HTU21D;64069;46.396;48.102;2023-07-16T08:19:03;30.42;29.86
75489;HTU21D;64069;46.396;48.102;2023-07-16T08:21:35;30.46;29.66
75489;HTU21D;64069;46.396;48.102;2023-07-16T08:24:09;30.32;29.22
75489;HTU21D;64069;46.396;48.102;2023-07-16T08:26:35;30.24;29.53
75489;HTU21D;64069;46.396;48.102;2023-07-16T08:29:08;30.21;29.61
75489;HTU21D;64069;46.396;48.102;2023-07-16T08:31:34;30.27;29.30
75489;HTU21D;64069;46.396;48.102;2023-07-16T08:34:06;30.15;29.24
75489;HTU21D;64069;46.396;48.102;2023-07-16T08:36:38;30.15;28.75
75489;HTU21D;64069;46.396;48.102;2023-07-16T08:39:04;30.17;28.86
75489;HTU21D;64069;46.396;48.102;2023-07-16T08:41:38;30.23;28.29
75489;HTU21D;64069;46.396;48.102;2023-07-16T08:44:12;30.31;27.90
75489;HTU21D;64069;46.396;48.102;2023-07-16T08:46:39;30.40;27.91
75489;HTU21D;64069;46.396;48.102;2023-07-16T08:49:12;30.40;27.65
75489;HTU21D;64069;46.396;48.102;2023-07-16T08:51:48;30.57;27.51
75489;HTU21D;64069;46.396;48.102;2023-07-16T08:54:22;30.67;27.64
75489;HTU21D;64069;46.396;48.102;2023-07-16T08:56:48;30.40;27.90
75489;HTU21D;64069;46.396;48.102;2023-07-16T08:59:20;30.45;28.27
75489;HTU21D;64069;46.396;48.102;2023-07-16T09:01:54;30.71;28.02
75489;HTU21D;64069;46.396;48.102;2023-07-16T09:04:19;30.97;27.45
75489;HTU21D;64069;46.396;48.102;2023-07-16T09:06:52;30.94;27.04
75489;HTU21D;64069;46.396;48.102;2023-07-16T09:09:26;31.02;26.85
75489;HTU21D;64069;46.396;48.102;2023-07-16T09:11:58;30.96;27.10
75489;HTU21D;64069;46.396;48.102;2023-07-16T09:14:24;30.99;27.29
75489;HTU21D;64069;46.396;48.102;2023-07-16T09:16:56;31.09;27.01
75489;HTU21D;64069;46.396;48.102;2023-07-16T09:19:32;31.35;26.74
75489;HTU21D;64069;46.396;48.102;2023-07-16T09:22:11;31.45;26.10
75489;HTU21D;64069;46.396;48.102;2023-07-16T09:24:37;31.42;26.19
75489;HTU21D;64069;46.396;48.102;2023-07-16T09:27:11;31.45;25.94
75489;HTU21D;64069;46.396;48.102;2023-07-16T09:29:43;31.27;25.98
75489;HTU21D;64069;46.396;48.102;2023-07-16T09:32:15;30.90;26.20
75489;HTU21D;64069;46.396;48.102;2023-07-16T09:34:41;30.82;26.60
75489;HTU21D;64069;46.396;48.102;2023-07-16T09:37:14;30.98;26.69
75489;HTU21D;64069;46.396;48.102;2023-07-16T09:39:47;30.96;26.71
75489;HTU21D;64069;46.396;48.102;2023-07-16T09:42:13;30.67;26.59
75489;HTU21D;64069;46.396;48.102;2023-07-16T09:44:46;30.55;26.59
75489;HTU21D;64069;46.396;48.102;2023-07-16T09:47:13;30.59;26.55
75489;HTU21D;64069;46.396;48.102;2023-07-16T09:49:45;30.55;26.64
75489;HTU21D;64069;46.396;48.102;2023-07-16T09:52:12;30.77;26.84
75489;HTU21D;64069;46.396;48.102;2023-07-16T09:54:46;30.83;26.74
75489;HTU21D;64069;46.396;48.102;2023-07-16T09:57:20;30.57;27.01
75489;HTU21D;64069;46.396;48.102;2023-07-16T09:59:47;30.39;27.18
75489;HTU21D;64069;46.396;48.102;2023-07-16T10:02:21;30.34;27.19
75489;HTU21D;64069;46.396;48.102;2023-07-16T10:04:54;30.48;27.27
75489;HTU21D;64069;46.396;48.102;2023-07-16T10:07:24;30.69;27.26
75489;HTU21D;64069;46.396;48.102;2023-07-16T10:09:58;30.87;27.07
75489;HTU21D;64069;46.396;48.102;2023-07-16T10:12:30;31.05;26.92
75489;HTU21D;64069;46.396;48.102;2023-07-16T10:15:04;30.79;26.81
75489;HTU21D;64069;46.396;48.102;2023-07-16T10:17:50;30.51;27.13
75489;HTU21D;64069;46.396;48.102;2023-07-16T10:20:31;30.46;27.10
75489;HTU21D;64069;46.396;48.102;2023-07-16T10:22:58;30.32;27.21
75489;HTU21D;64069;46.396;48.102;2023-07-16T10:25:30;30.51;27.12
75489;HTU21D;64069;46.396;48.102;2023-07-16T10:28:03;31.11;26.75
75489;HTU21D;64069;46.396;48.102;2023-07-16T10:30:36;31.63;26.05
75489;HTU21D;64069;46.396;48.102;2023-07-16T10:33:12;31.78;25.49
75489;HTU21D;64069;46.396;48.102;2023-07-16T10:35:45;31.69;25.53
75489;HTU21D;64069;46.396;48.102;2023-07-16T10:38:12;31.78;25.93
75489;HTU21D;64069;46.396;48.102;2023-07-16T10:40:45;31.89;25.60
75489;HTU21D;64069;46.396;48.102;2023-07-16T10:43:18;31.82;25.59
75489;HTU21D;64069;46.396;48.102;2023-07-16T10:45:44;31.60;25.75
75489;HTU21D;64069;46.396;48.102;2023-07-16T10:48:24;31.71;26.04
75489;HTU21D;64069;46.396;48.102;2023-07-16T10:50:56;31.75;25.60
75489;HTU21D;64069;46.396;48.102;2023-07-16T10:53:28;31.51;25.62
75489;HTU21D;64069;46.396;48.102;2023-07-16T10:55:54;31.18;26.00
75489;HTU21D;64069;46.396;48.102;2023-07-16T10:58:29;30.95;26.36
75489;HTU21D;64069;46.396;48.102;2023-07-16T11:00:55;30.81;26.55
75489;HTU21D;64069;46.396;48.102;2023-07-16T11:03:27;30.62;26.74
75489;HTU21D;64069;46.396;48.102;2023-07-16T11:06:06;30.46;27.09
75489;HTU21D;64069;46.396;48.102;2023-07-16T11:08:40;30.35;27.46
75489;HTU21D;64069;46.396;48.102;2023-07-16T11:11:06;30.34;27.60
75489;HTU21D;64069;46.396;48.102;2023-07-16T11:13:39;30.46;27.78
75489;HTU21D;64069;46.396;48.102;2023-07-16T11:16:11;30.69;27.46
75489;HTU21D;64069;46.396;48.102;2023-07-16T11:18:37;30.75;27.53
75489;HTU21D;64069;46.396;48.102;2023-07-16T11:21:09;30.56;27.51
75489;HTU21D;64069;46.396;48.102;2023-07-16T11:23:41;30.36;27.84
75489;HTU21D;64069;46.396;48.102;2023-07-16T11:26:08;30.56;27.78
75489;HTU21D;64069;46.396;48.102;2023-07-16T11:28:41;30.92;26.97
75489;HTU21D;64069;46.396;48.102;2023-07-16T11:31:14;30.87;26.68
75489;HTU21D;64069;46.396;48.102;2023-07-16T11:33:44;30.80;26.79
75489;HTU21D;64069;46.396;48.102;2023-07-16T11:36:16;30.70;26.83
75489;HTU21D;64069;46.396;48.102;2023-07-16T11:38:49;30.53;27.04
75489;HTU21D;64069;46.396;48.102;2023-07-16T11:41:20;30.51;27.39
75489;HTU21D;64069;46.396;48.102;2023-07-16T11:43:52;30.54;27.56
75489;HTU21D;64069;46.396;48.102;2023-07-16T11:46:24;30.44;27.39
75489;HTU21D;64069;46.396;48.102;2023-07-16T11:48:50;30.33;27.44
75489;HTU21D;64069;46.396;48.102;2023-07-16T11:51:22;30.35;27.29
75489;HTU21D;64069;46.396;48.102;2023-07-16T11:53:56;30.25;27.62
75489;HTU21D;64069;46.396;48.102;2023-07-16T11:56:23;30.06;28.07
75489;HTU21D;64069;46.396;48.102;2023-07-16T11:58:56;29.68;28.56
75489;HTU21D;64069;46.396;48.102;2023-07-16T12:01:28;29.37;29.43
75489;HTU21D;64069;46.396;48.102;2023-07-16T12:03:54;29.26;29.77
75489;HTU21D;64069;46.396;48.102;2023-07-16T12:06:26;29.24;29.75
75489;HTU21D;64069;46.396;48.102;2023-07-16T12:08:59;29.15;29.70
75489;HTU21D;64069;46.396;48.102;2023-07-16T12:11:24;29.12;29.76
75489;HTU21D;64069;46.396;48.102;2023-07-16T12:13:56;29.06;29.96
75489;HTU21D;64069;46.396;48.102;2023-07-16T12:16:29;29.05;30.20
75489;HTU21D;64069;46.396;48.102;2023-07-16T12:18:54;29.17;30.26
75489;HTU21D;64069;46.396;48.102;2023-07-16T12:21:27;29.29;30.27
75489;HTU21D;64069;46.396;48.102;2023-07-16T12:23:52;29.48;30.14
75489;HTU21D;64069;46.396;48.102;2023-07-16T12:26:25;29.52;30.09
75489;HTU21D;64069;46.396;48.102;2023-07-16T12:28:59;29.49;30.43
75489;HTU21D;64069;46.396;48.102;2023-07-16T12:31:34;29.32;30.51
75489;HTU21D;64069;46.396;48.102;2023-07-16T12:34:06;29.11;30.84
75489;HTU21D;64069;46.396;48.102;2023-07-16T12:36:32;28.98;31.04
75489;HTU21D;64069;46.396;48.102;2023-07-16T12:39:04;29.08;31.13
75489;HTU21D;64069;46.396;48.102;2023-07-16T12:41:36;29.35;31.01
75489;HTU21D;64069;46.396;48.102;2023-07-16T12:44:02;29.51;30.73
75489;HTU21D;64069;46.396;48.102;2023-07-16T12:46:34;29.47;30.37
75489;HTU21D;64069;46.396;48.102;2023-07-16T12:49:06;29.33;30.50
75489;HTU21D;64069;46.396;48.102;2023-07-16T12:51:32;29.28;30.28
75489;HTU21D;64069;46.396;48.102;2023-07-16T12:54:05;29.11;30.50
75489;HTU21D;64069;46.396;48.102;2023-07-16T12:56:31;29.04;30.55
75489;HTU21D;64069;46.396;48.102;2023-07-16T12:59:04;29.18;30.87
75489;HTU21D;64069;46.396;48.102;2023-07-16T13:01:37;29.24;30.55
75489;HTU21D;64069;46.396;48.102;2023-07-16T13:04:02;29.21;30.58
75489;HTU21D;64069;46.396;48.102;2023-07-16T13:06:34;29.15;30.66
75489;HTU21D;64069;46.396;48.102;2023-07-16T13:09:07;29.02;30.84
75489;HTU21D;64069;46.396;48.102;2023-07-16T13:11:33;28.91;30.78
75489;HTU21D;64069;46.396;48.102;2023-07-16T13:14:06;28.86;30.76
75489;HTU21D;64069;46.396;48.102;2023-07-16T13:16:39;28.94;30.85
75489;HTU21D;64069;46.396;48.102;2023-07-16T13:19:04;29.00;30.23
75489;HTU21D;64069;46.396;48.102;2023-07-16T13:21:36;28.92;30.03
75489;HTU21D;64069;46.396;48.102;2023-07-16T13:24:16;28.87;30.15
75489;HTU21D;64069;46.396;48.102;2023-07-16T13:26:49;28.88;30.27
75489;HTU21D;64069;46.396;48.102;2023-07-16T13:29:15;28.89;30.16
75489;HTU21D;64069;46.396;48.102;2023-07-16T13:34:27;28.74;30.44
75489;HTU21D;64069;46.396;48.102;2023-07-16T13:37:00;28.68;30.53
75489;HTU21D;64069;46.396;48.102;2023-07-16T13:39:25;28.73;30.42
75489;HTU21D;64069;46.396;48.102;2023-07-16T13:41:57;28.78;30.31
75489;HTU21D;64069;46.396;48.102;2023-07-16T13:44:30;28.94;30.39
75489;HTU21D;64069;46.396;48.102;2023-07-16T13:46:55;29.11;30.37
75489;HTU21D;64069;46.396;48.102;2023-07-16T13:49:27;29.16;30.21
75489;HTU21D;64069;46.396;48.102;2023-07-16T13:52:00;29.16;30.23
75489;HTU21D;64069;46.396;48.102;2023-07-16T13:54:25;29.16;30.27
75489;HTU21D;64069;46.396;48.102;2023-07-16T13:56:58;29.23;30.06
75489;HTU21D;64069;46.396;48.102;2023-07-16T13:59:31;29.23;29.81
75489;HTU21D;64069;46.396;48.102;2023-07-16T14:02:01;29.20;29.75
75489;HTU21D;64069;46.396;48.102;2023-07-16T14:04:33;29.07;29.89
75489;HTU21D;64069;46.396;48.102;2023-07-16T14:07:06;28.99;30.00
75489;HTU21D;64069;46.396;48.102;2023-07-16T14:09:38;28.97;29.98
75489;HTU21D;64069;46.396;48.102;2023-07-16T14:12:11;29.00;29.79
75489;HTU21D;64069;46.396;48.102;2023-07-16T14:14:43;29.05;29.87
75489;HTU21D;64069;46.396;48.102;2023-07-16T14:17:09;29.06;29.96
75489;HTU21D;64069;46.396;48.102;2023-07-16T14:19:42;29.03;30.25
75489;HTU21D;64069;46.396;48.102;2023-07-16T14:22:14;28.99;30.54
75489;HTU21D;64069;46.396;48.102;2023-07-16T14:24:41;28.90;30.72
75489;HTU21D;64069;46.396;48.102;2023-07-16T14:27:13;28.80;30.97
75489;HTU21D;64069;46.396;48.102;2023-07-16T14:29:46;28.71;31.18
75489;HTU21D;64069;46.396;48.102;2023-07-16T14:32:12;28.65;31.23
75489;HTU21D;64069;46.396;48.102;2023-07-16T14:34:44;28.60;31.38
75489;HTU21D;64069;46.396;48.102;2023-07-16T14:37:24;28.56;31.22
75489;HTU21D;64069;46.396;48.102;2023-07-16T14:39:49;28.53;31.16
75489;HTU21D;64069;46.396;48.102;2023-07-16T14:42:22;28.44;31.51
75489;HTU21D;64069;46.396;48.102;2023-07-16T14:44:55;28.32;32.00
75489;HTU21D;64069;46.396;48.102;2023-07-16T14:47:28;28.19;32.46
75489;HTU21D;64069;46.396;48.102;2023-07-16T14:50:00;27.99;33.00
75489;HTU21D;64069;46.396;48.102;2023-07-16T14:52:32;27.89;33.47
75489;HTU21D;64069;46.396;48.102;2023-07-16T14:54:58;27.84;33.83
75489;HTU21D;64069;46.396;48.102;2023-07-16T14:57:31;27.78;34.18
75489;HTU21D;64069;46.396;48.102;2023-07-16T15:00:03;27.71;34.66
75489;HTU21D;64069;46.396;48.102;2023-07-16T15:02:30;27.66;34.63
75489;HTU21D;64069;46.396;48.102;2023-07-16T15:05:03;27.53;34.79
75489;HTU21D;64069;46.396;48.102;2023-07-16T15:07:37;27.39;35.08
75489;HTU21D;64069;46.396;48.102;2023-07-16T15:10:03;27.22;35.41
75489;HTU21D;64069;46.396;48.102;2023-07-16T15:12:36;27.08;35.69
75489;HTU21D;64069;46.396;48.102;2023-07-16T15:15:02;26.99;36.01
75489;HTU21D;64069;46.396;48.102;2023-07-16T15:17:33;26.89;36.38
75489;HTU21D;64069;46.396;48.102;2023-07-16T15:20:07;26.80;36.67
75489;HTU21D;64069;46.396;48.102;2023-07-16T15:22:34;26.72;36.92
75489;HTU21D;64069;46.396;48.102;2023-07-16T15:25:07;26.62;37.17
75489;HTU21D;64069;46.396;48.102;2023-07-16T15:27:40;26.55;37.30
75489;HTU21D;64069;46.396;48.102;2023-07-16T15:30:06;26.52;37.43
75489;HTU21D;64069;46.396;48.102;2023-07-16T15:32:39;26.49;37.65
75489;HTU21D;64069;46.396;48.102;2023-07-16T15:35:19;26.46;37.83